sensor_id;sensor_type;location;lat;lon;timestamp;pressure;altitude;pressure_sealevel;temperature;humidity
72921;BME280;61064;51.654;5.476;2022-09-02T00:00:33;101699.69;;;18.00;47.19
72921;BME280;61064;51.654;5.476;2022-09-02T00:02:59;101700.59;;;17.99;47.29
72921;BME280;61064;51.654;5.476;2022-09-02T00:05:25;101686.31;;;17.89;47.24
72921;BME280;61064;51.654;5.476;2022-09-02T00:07:50;101681.03;;;17.83;47.45
72921;BME280;61064;51.654;5.476;2022-09-02T00:10:16;101674.75;;;17.79;47.54
72921;BME280;61064;51.654;5.476;2022-09-02T00:12:41;101696.22;;;17.85;47.47
72921;BME280;61064;51.654;5.476;2022-09-02T00:15:07;101698.94;;;17.85;47.46
72921;BME280;61064;51.654;5.476;2022-09-02T00:17:33;101680.13;;;17.79;47.68
72921;BME280;61064;51.654;5.476;2022-09-02T00:19:58;101683.78;;;17.75;47.68
72921;BME280;61064;51.654;5.476;2022-09-02T00:22:24;101686.47;;;17.74;47.59
72921;BME280;61064;51.654;5.476;2022-09-02T00:24:49;101673.97;;;17.67;47.74
72921;BME280;61064;51.654;5.476;2022-09-02T00:27:14;101684.69;;;17.73;47.86
72921;BME280;61064;51.654;5.476;2022-09-02T00:29:40;101681.19;;;17.65;47.99
72921;BME280;61064;51.654;5.476;2022-09-02T00:32:05;101686.53;;;17.68;48.05
72921;BME280;61064;51.654;5.476;2022-09-02T00:34:30;101684.78;;;17.64;48.09
72921;BME280;61064;51.654;5.476;2022-09-02T00:36:57;101680.34;;;17.60;48.13
72921;BME280;61064;51.654;5.476;2022-09-02T00:39:22;101676.78;;;17.53;48.28
72921;BME280;61064;51.654;5.476;2022-09-02T00:41:48;101678.56;;;17.53;48.30
72921;BME280;61064;51.654;5.476;2022-09-02T00:44:15;101675.88;;;17.54;48.37
72921;BME280;61064;51.654;5.476;2022-09-02T00:46:41;101675.00;;;17.51;48.44
72921;BME280;61064;51.654;5.476;2022-09-02T00:49:15;101671.44;;;17.47;48.58
72921;BME280;61064;51.654;5.476;2022-09-02T00:51:46;101661.63;;;17.40;48.77
72921;BME280;61064;51.654;5.476;2022-09-02T00:54:14;101659.88;;;17.34;48.71
72921;BME280;61064;51.654;5.476;2022-09-02T00:56:43;101668.84;;;17.38;48.74
72921;BME280;61064;51.654;5.476;2022-09-02T01:01:53;101668.91;;;17.30;49.00
72921;BME280;61064;51.654;5.476;2022-09-02T01:04:19;101660.88;;;17.27;48.93
72921;BME280;61064;51.654;5.476;2022-09-02T01:06:45;101649.25;;;17.21;48.73
72921;BME280;61064;51.654;5.476;2022-09-02T01:09:14;101661.81;;;17.22;48.96
72921;BME280;61064;51.654;5.476;2022-09-02T01:11:43;101640.38;;;17.07;49.19
72921;BME280;61064;51.654;5.476;2022-09-02T01:14:13;101657.41;;;17.09;49.30
72921;BME280;61064;51.654;5.476;2022-09-02T01:16:49;101661.00;;;17.11;49.32
72921;BME280;61064;51.654;5.476;2022-09-02T01:19:27;101641.38;;;16.96;49.61
72921;BME280;61064;51.654;5.476;2022-09-02T01:21:56;101664.63;;;17.05;49.67
72921;BME280;61064;51.654;5.476;2022-09-02T01:24:24;101655.72;;;16.98;49.77
72921;BME280;61064;51.654;5.476;2022-09-02T01:26:54;101656.59;;;16.99;49.77
72921;BME280;61064;51.654;5.476;2022-09-02T01:29:22;101654.81;;;16.96;49.80
72921;BME280;61064;51.654;5.476;2022-09-02T01:31:48;101649.47;;;16.92;49.95
72921;BME280;61064;51.654;5.476;2022-09-02T01:34:14;101656.63;;;16.93;49.80
72921;BME280;61064;51.654;5.476;2022-09-02T01:36:40;101643.28;;;16.82;50.07
72921;BME280;61064;51.654;5.476;2022-09-02T01:39:07;101637.91;;;16.79;50.10
72921;BME280;61064;51.654;5.476;2022-09-02T01:41:34;101621.84;;;16.67;50.13
72921;BME280;61064;51.654;5.476;2022-09-02T01:43:59;101651.34;;;16.81;50.27
72921;BME280;61064;51.654;5.476;2022-09-02T01:46:25;101639.72;;;16.76;50.10
72921;BME280;61064;51.654;5.476;2022-09-02T01:48:50;101649.56;;;16.74;50.34
72921;BME280;61064;51.654;5.476;2022-09-02T01:51:18;101636.19;;;16.68;50.32
72921;BME280;61064;51.654;5.476;2022-09-02T01:53:44;101628.16;;;16.63;50.24
72921;BME280;61064;51.654;5.476;2022-09-02T01:56:10;101629.06;;;16.59;50.48
72921;BME280;61064;51.654;5.476;2022-09-02T01:58:36;101629.94;;;16.56;50.36
72921;BME280;61064;51.654;5.476;2022-09-02T02:01:01;101633.53;;;16.57;50.65
72921;BME280;61064;51.654;5.476;2022-09-02T02:03:27;101643.38;;;16.56;50.61
72921;BME280;61064;51.654;5.476;2022-09-02T02:05:52;101638.03;;;16.50;50.67
72921;BME280;61064;51.654;5.476;2022-09-02T02:08:18;101629.09;;;16.45;50.75
72921;BME280;61064;51.654;5.476;2022-09-02T02:10:43;101646.09;;;16.52;50.74
72921;BME280;61064;51.654;5.476;2022-09-02T02:13:09;101639.84;;;16.45;50.82
72921;BME280;61064;51.654;5.476;2022-09-02T02:15:40;101639.00;;;16.37;50.99
72921;BME280;61064;51.654;5.476;2022-09-02T02:18:07;101652.38;;;16.45;51.13
72921;BME280;61064;51.654;5.476;2022-09-02T02:20:33;101646.16;;;16.35;51.27
72921;BME280;61064;51.654;5.476;2022-09-02T02:22:58;101646.19;;;16.38;51.28
72921;BME280;61064;51.654;5.476;2022-09-02T02:25:24;101633.66;;;16.28;51.31
72921;BME280;61064;51.654;5.476;2022-09-02T02:27:49;101644.41;;;16.30;51.39
72921;BME280;61064;51.654;5.476;2022-09-02T02:30:16;101643.50;;;16.29;51.28
72921;BME280;61064;51.654;5.476;2022-09-02T02:32:43;101623.00;;;16.16;51.29
72921;BME280;61064;51.654;5.476;2022-09-02T02:35:10;101626.56;;;16.15;51.46
72921;BME280;61064;51.654;5.476;2022-09-02T02:37:36;101620.34;;;16.08;51.76
72921;BME280;61064;51.654;5.476;2022-09-02T02:40:03;101634.63;;;16.13;51.72
72921;BME280;61064;51.654;5.476;2022-09-02T02:42:28;101612.31;;;16.04;51.69
72921;BME280;61064;51.654;5.476;2022-09-02T02:44:54;101626.56;;;16.12;51.63
72921;BME280;61064;51.654;5.476;2022-09-02T02:47:19;101631.03;;;16.11;51.85
72921;BME280;61064;51.654;5.476;2022-09-02T02:49:45;101628.38;;;16.07;51.87
72921;BME280;61064;51.654;5.476;2022-09-02T02:52:11;101623.91;;;16.06;51.86
72921;BME280;61064;51.654;5.476;2022-09-02T02:54:37;101627.47;;;16.11;52.03
72921;BME280;61064;51.654;5.476;2022-09-02T02:57:04;101616.75;;;16.06;52.01
72921;BME280;61064;51.654;5.476;2022-09-02T02:59:30;101635.50;;;16.11;52.02
72921;BME280;61064;51.654;5.476;2022-09-02T03:01:56;101621.22;;;16.06;51.91
72921;BME280;61064;51.654;5.476;2022-09-02T03:04:21;101623.00;;;16.11;52.04
72921;BME280;61064;51.654;5.476;2022-09-02T03:06:47;101606.03;;;16.00;52.07
72921;BME280;61064;51.654;5.476;2022-09-02T03:09:13;101618.53;;;16.06;51.93
72921;BME280;61064;51.654;5.476;2022-09-02T03:11:39;101628.41;;;16.04;52.21
72921;BME280;61064;51.654;5.476;2022-09-02T03:14:04;101619.47;;;16.03;52.29
72921;BME280;61064;51.654;5.476;2022-09-02T03:16:29;101593.56;;;15.86;52.22
72921;BME280;61064;51.654;5.476;2022-09-02T03:18:55;101625.75;;;15.96;52.19
72921;BME280;61064;51.654;5.476;2022-09-02T03:21:20;101623.06;;;15.99;52.26
72921;BME280;61064;51.654;5.476;2022-09-02T03:23:47;101619.47;;;15.99;52.42
72921;BME280;61064;51.654;5.476;2022-09-02T03:26:18;101606.06;;;15.90;52.50
72921;BME280;61064;51.654;5.476;2022-09-02T03:28:44;101616.81;;;15.99;52.50
72921;BME280;61064;51.654;5.476;2022-09-02T03:31:17;101612.31;;;15.96;52.50
72921;BME280;61064;51.654;5.476;2022-09-02T03:33:43;101620.38;;;15.99;52.57
72921;BME280;61064;51.654;5.476;2022-09-02T03:36:28;101610.56;;;15.94;52.53
72921;BME280;61064;51.654;5.476;2022-09-02T03:38:55;101618.56;;;16.00;52.55
72921;BME280;61064;51.654;5.476;2022-09-02T03:41:21;101605.19;;;15.92;52.56
72921;BME280;61064;51.654;5.476;2022-09-02T03:43:47;101598.03;;;15.91;52.74
72921;BME280;61064;51.654;5.476;2022-09-02T03:46:12;101612.31;;;15.98;52.66
72921;BME280;61064;51.654;5.476;2022-09-02T03:48:39;101590.00;;;15.84;52.63
72921;BME280;61064;51.654;5.476;2022-09-02T03:51:05;101606.06;;;15.94;52.73
72921;BME280;61064;51.654;5.476;2022-09-02T03:53:31;101605.19;;;15.94;52.82
72921;BME280;61064;51.654;5.476;2022-09-02T03:55:58;101591.78;;;15.83;52.80
72921;BME280;61064;51.654;5.476;2022-09-02T03:58:27;101605.22;;;15.88;52.90
72921;BME280;61064;51.654;5.476;2022-09-02T04:00:53;101597.16;;;15.86;52.94
72921;BME280;61064;51.654;5.476;2022-09-02T04:03:19;101601.63;;;15.86;52.79
72921;BME280;61064;51.654;5.476;2022-09-02T04:05:48;101602.50;;;15.85;53.04
72921;BME280;61064;51.654;5.476;2022-09-02T04:08:15;101598.06;;;15.82;53.05
72921;BME280;61064;51.654;5.476;2022-09-02T04:10:40;101572.13;;;15.73;53.06
72921;BME280;61064;51.654;5.476;2022-09-02T04:13:05;101601.63;;;15.86;52.94
72921;BME280;61064;51.654;5.476;2022-09-02T04:15:31;101599.84;;;15.82;53.05
72921;BME280;61064;51.654;5.476;2022-09-02T04:17:57;101582.88;;;15.75;53.07
72921;BME280;61064;51.654;5.476;2022-09-02T04:20:22;101601.66;;;15.76;53.19
72921;BME280;61064;51.654;5.476;2022-09-02T04:22:48;101588.25;;;15.69;53.24
72921;BME280;61064;51.654;5.476;2022-09-02T04:25:13;101588.28;;;15.66;53.38
72921;BME280;61064;51.654;5.476;2022-09-02T04:27:39;101583.78;;;15.62;53.53
72921;BME280;61064;51.654;5.476;2022-09-02T04:30:07;101589.13;;;15.66;53.55
72921;BME280;61064;51.654;5.476;2022-09-02T04:32:33;101576.66;;;15.62;53.60
72921;BME280;61064;51.654;5.476;2022-09-02T04:34:59;101590.03;;;15.67;53.44
72921;BME280;61064;51.654;5.476;2022-09-02T04:37:25;101577.56;;;15.60;53.63
72921;BME280;61064;51.654;5.476;2022-09-02T04:39:51;101581.09;;;15.66;53.71
72921;BME280;61064;51.654;5.476;2022-09-02T04:42:16;101571.28;;;15.65;53.77
72921;BME280;61064;51.654;5.476;2022-09-02T04:44:42;101581.97;;;15.73;53.75
72921;BME280;61064;51.654;5.476;2022-09-02T04:47:07;101569.47;;;15.69;53.89
72921;BME280;61064;51.654;5.476;2022-09-02T04:49:32;101586.44;;;15.74;53.83
72921;BME280;61064;51.654;5.476;2022-09-02T04:51:59;101589.16;;;15.77;53.86
72921;BME280;61064;51.654;5.476;2022-09-02T04:54:25;101567.69;;;15.68;53.95
72921;BME280;61064;51.654;5.476;2022-09-02T04:56:51;101579.31;;;15.71;53.92
72921;BME280;61064;51.654;5.476;2022-09-02T04:59:16;101576.63;;;15.76;53.92
72921;BME280;61064;51.654;5.476;2022-09-02T05:01:42;101573.91;;;15.77;54.00
72921;BME280;61064;51.654;5.476;2022-09-02T05:04:08;101573.00;;;15.78;53.84
72921;BME280;61064;51.654;5.476;2022-09-02T05:06:35;101581.03;;;15.83;53.92
72921;BME280;61064;51.654;5.476;2022-09-02T05:09:00;101574.81;;;15.78;53.88
72921;BME280;61064;51.654;5.476;2022-09-02T05:11:27;101586.41;;;15.85;54.16
72921;BME280;61064;51.654;5.476;2022-09-02T05:13:55;101581.94;;;15.84;54.11
72921;BME280;61064;51.654;5.476;2022-09-02T05:16:26;101590.88;;;15.89;54.25
72921;BME280;61064;51.654;5.476;2022-09-02T05:18:52;101583.72;;;15.85;54.24
72921;BME280;61064;51.654;5.476;2022-09-02T05:21:18;101591.75;;;15.91;54.23
72921;BME280;61064;51.654;5.476;2022-09-02T05:23:45;101579.25;;;15.88;54.29
72921;BME280;61064;51.654;5.476;2022-09-02T05:26:12;101579.25;;;15.91;54.10
72921;BME280;61064;51.654;5.476;2022-09-02T05:28:39;101590.84;;;15.99;54.16
72921;BME280;61064;51.654;5.476;2022-09-02T05:31:13;101584.59;;;15.99;54.28
72921;BME280;61064;51.654;5.476;2022-09-02T05:33:40;101594.38;;;16.06;54.21
72921;BME280;61064;51.654;5.476;2022-09-02T05:36:08;101585.44;;;16.10;54.26
72921;BME280;61064;51.654;5.476;2022-09-02T05:38:34;101589.00;;;16.13;54.13
72921;BME280;61064;51.654;5.476;2022-09-02T05:41:07;101583.63;;;16.15;54.28
72921;BME280;61064;51.654;5.476;2022-09-02T05:43:35;101578.22;;;16.16;54.07
72921;BME280;61064;51.654;5.476;2022-09-02T05:46:05;101585.38;;;16.17;54.42
72921;BME280;61064;51.654;5.476;2022-09-02T05:48:35;101572.84;;;16.18;54.31
72921;BME280;61064;51.654;5.476;2022-09-02T05:51:20;101580.88;;;16.24;54.14
72921;BME280;61064;51.654;5.476;2022-09-02T05:53:45;101583.53;;;16.29;54.35
72921;BME280;61064;51.654;5.476;2022-09-02T05:56:10;101585.34;;;16.25;54.08
72921;BME280;61064;51.654;5.476;2022-09-02T05:58:36;101583.53;;;16.30;54.27
72921;BME280;61064;51.654;5.476;2022-09-02T06:01:09;101578.16;;;16.30;54.54
72921;BME280;61064;51.654;5.476;2022-09-02T06:03:36;101567.44;;;16.32;54.41
72921;BME280;61064;51.654;5.476;2022-09-02T06:06:01;101579.03;;;16.38;54.32
72921;BME280;61064;51.654;5.476;2022-09-02T06:08:26;101571.84;;;16.42;54.40
72921;BME280;61064;51.654;5.476;2022-09-02T06:10:52;101580.75;;;16.47;54.31
72921;BME280;61064;51.654;5.476;2022-09-02T06:13:17;101574.50;;;16.46;54.27
72921;BME280;61064;51.654;5.476;2022-09-02T06:15:46;101565.53;;;16.47;54.18
72921;BME280;61064;51.654;5.476;2022-09-02T06:18:11;101583.41;;;16.54;54.27
72921;BME280;61064;51.654;5.476;2022-09-02T06:20:44;101582.50;;;16.52;53.80
72921;BME280;61064;51.654;5.476;2022-09-02T06:23:11;101578.88;;;16.61;54.30
72921;BME280;61064;51.654;5.476;2022-09-02T06:25:42;101578.88;;;16.62;54.32
72921;BME280;61064;51.654;5.476;2022-09-02T06:28:08;101581.56;;;16.66;54.31
72921;BME280;61064;51.654;5.476;2022-09-02T06:30:34;101578.84;;;16.70;54.46
72921;BME280;61064;51.654;5.476;2022-09-02T06:33:00;101561.84;;;16.67;54.25
72921;BME280;61064;51.654;5.476;2022-09-02T06:35:29;101568.09;;;16.72;54.29
72921;BME280;61064;51.654;5.476;2022-09-02T06:37:56;101563.59;;;16.72;54.19
72921;BME280;61064;51.654;5.476;2022-09-02T06:40:22;101585.03;;;16.83;54.23
72921;BME280;61064;51.654;5.476;2022-09-02T06:42:47;101571.59;;;16.81;54.01
72921;BME280;61064;51.654;5.476;2022-09-02T06:45:13;101571.56;;;16.87;54.30
72921;BME280;61064;51.654;5.476;2022-09-02T06:47:39;101567.97;;;16.88;54.22
72921;BME280;61064;51.654;5.476;2022-09-02T06:50:04;101570.63;;;16.91;54.28
72921;BME280;61064;51.654;5.476;2022-09-02T06:52:30;101564.31;;;16.95;54.32
72921;BME280;61064;51.654;5.476;2022-09-02T06:54:55;101558.03;;;16.96;54.30
72921;BME280;61064;51.654;5.476;2022-09-02T06:57:20;101569.59;;;17.06;54.28
72921;BME280;61064;51.654;5.476;2022-09-02T06:59:46;101569.53;;;17.12;54.16
72921;BME280;61064;51.654;5.476;2022-09-02T07:02:12;101552.56;;;17.10;54.02
72921;BME280;61064;51.654;5.476;2022-09-02T07:04:39;101563.16;;;17.22;53.95
72921;BME280;61064;51.654;5.476;2022-09-02T07:07:24;101565.81;;;17.28;53.90
72921;BME280;61064;51.654;5.476;2022-09-02T07:09:49;101562.22;;;17.31;53.85
72921;BME280;61064;51.654;5.476;2022-09-02T07:12:15;101552.25;;;17.40;53.71
72921;BME280;61064;51.654;5.476;2022-09-02T07:14:42;101553.97;;;17.44;53.76
72921;BME280;61064;51.654;5.476;2022-09-02T07:17:09;101550.31;;;17.52;53.60
72921;BME280;61064;51.654;5.476;2022-09-02T07:19:35;101540.47;;;17.51;53.57
72921;BME280;61064;51.654;5.476;2022-09-02T07:22:05;101550.22;;;17.64;53.54
72921;BME280;61064;51.654;5.476;2022-09-02T07:24:31;101543.88;;;17.69;53.56
72921;BME280;61064;51.654;5.476;2022-09-02T07:26:56;101555.47;;;17.74;53.35
72921;BME280;61064;51.654;5.476;2022-09-02T07:29:22;101544.72;;;17.76;53.29
72921;BME280;61064;51.654;5.476;2022-09-02T07:31:48;101540.09;;;17.84;53.31
72921;BME280;61064;51.654;5.476;2022-09-02T07:34:13;101540.00;;;17.93;53.08
72921;BME280;61064;51.654;5.476;2022-09-02T07:36:39;101548.94;;;17.95;53.21
72921;BME280;61064;51.654;5.476;2022-09-02T07:39:07;101538.97;;;18.03;53.31
72921;BME280;61064;51.654;5.476;2022-09-02T07:41:33;101525.44;;;18.09;53.24
72921;BME280;61064;51.654;5.476;2022-09-02T07:43:59;101541.44;;;18.20;53.01
72921;BME280;61064;51.654;5.476;2022-09-02T07:46:24;101536.88;;;18.26;52.87
72921;BME280;61064;51.654;5.476;2022-09-02T07:48:50;101526.91;;;18.30;52.99
72921;BME280;61064;51.654;5.476;2022-09-02T07:51:18;101548.22;;;18.47;52.71
72921;BME280;61064;51.654;5.476;2022-09-02T07:53:44;101546.31;;;18.58;52.65
72921;BME280;61064;51.654;5.476;2022-09-02T07:56:11;101542.63;;;18.62;52.41
72921;BME280;61064;51.654;5.476;2022-09-02T07:58:38;101540.84;;;18.62;52.39
72921;BME280;61064;51.654;5.476;2022-09-02T08:01:04;101547.91;;;18.71;52.61
72921;BME280;61064;51.654;5.476;2022-09-02T08:03:29;101545.06;;;18.80;52.33
72921;BME280;61064;51.654;5.476;2022-09-02T08:05:55;101540.44;;;18.87;52.21
72921;BME280;61064;51.654;5.476;2022-09-02T08:08:22;101547.47;;;18.97;52.12
72921;BME280;61064;51.654;5.476;2022-09-02T08:10:49;101548.25;;;19.03;51.98
72921;BME280;61064;51.654;5.476;2022-09-02T08:13:16;101549.00;;;19.11;52.04
72921;BME280;61064;51.654;5.476;2022-09-02T08:15:42;101545.28;;;19.19;51.92
72921;BME280;61064;51.654;5.476;2022-09-02T08:18:08;101531.69;;;19.23;51.76
72921;BME280;61064;51.654;5.476;2022-09-02T08:20:33;101528.94;;;19.28;51.81
72921;BME280;61064;51.654;5.476;2022-09-02T08:22:59;101536.84;;;19.37;51.78
72921;BME280;61064;51.654;5.476;2022-09-02T08:25:24;101527.72;;;19.45;51.51
72921;BME280;61064;51.654;5.476;2022-09-02T08:27:52;101534.69;;;19.57;51.46
72921;BME280;61064;51.654;5.476;2022-09-02T08:30:17;101513.16;;;19.56;51.58
72921;BME280;61064;51.654;5.476;2022-09-02T08:32:43;101534.31;;;19.77;51.33
72921;BME280;61064;51.654;5.476;2022-09-02T08:35:09;101521.63;;;19.80;51.41
72921;BME280;61064;51.654;5.476;2022-09-02T08:37:35;101518.66;;;19.92;51.21
72921;BME280;61064;51.654;5.476;2022-09-02T08:40:04;101518.34;;;20.06;51.14
72921;BME280;61064;51.654;5.476;2022-09-02T08:42:36;101520.84;;;20.17;50.98
72921;BME280;61064;51.654;5.476;2022-09-02T08:45:19;101501.69;;;20.27;50.80
72921;BME280;61064;51.654;5.476;2022-09-02T08:47:49;101502.25;;;20.43;50.52
72921;BME280;61064;51.654;5.476;2022-09-02T08:50:18;101501.91;;;20.57;50.49
72921;BME280;61064;51.654;5.476;2022-09-02T08:53:06;101511.16;;;20.84;50.36
72921;BME280;61064;51.654;5.476;2022-09-02T08:55:41;101506.03;;;21.07;50.21
72921;BME280;61064;51.654;5.476;2022-09-02T08:58:17;101501.16;;;21.23;49.59
72921;BME280;61064;51.654;5.476;2022-09-02T09:00:47;101492.59;;;21.38;49.41
72921;BME280;61064;51.654;5.476;2022-09-02T09:03:27;101510.22;;;21.52;49.64
72921;BME280;61064;51.654;5.476;2022-09-02T09:08:55;101506.72;;;21.80;48.98
72921;BME280;61064;51.654;5.476;2022-09-02T09:20:14;101498.16;;;22.24;48.24
72921;BME280;61064;51.654;5.476;2022-09-02T09:22:41;101499.59;;;22.36;47.96
72921;BME280;61064;51.654;5.476;2022-09-02T09:25:10;101494.94;;;22.41;48.09
72921;BME280;61064;51.654;5.476;2022-09-02T09:27:37;101495.44;;;22.54;47.93
72921;BME280;61064;51.654;5.476;2022-09-02T09:30:05;101495.13;;;22.63;47.69
72921;BME280;61064;51.654;5.476;2022-09-02T09:32:35;101499.28;;;22.74;47.27
72921;BME280;61064;51.654;5.476;2022-09-02T09:35:10;101493.84;;;22.74;46.88
72921;BME280;61064;51.654;5.476;2022-09-02T09:37:44;101506.13;;;22.86;46.39
72921;BME280;61064;51.654;5.476;2022-09-02T09:40:21;101504.88;;;22.96;46.33
72921;BME280;61064;51.654;5.476;2022-09-02T09:53:25;101478.53;;;23.51;45.58
72921;BME280;61064;51.654;5.476;2022-09-02T09:58:44;101474.06;;;23.73;45.09
72921;BME280;61064;51.654;5.476;2022-09-02T10:04:04;101474.03;;;23.96;44.56
72921;BME280;61064;51.654;5.476;2022-09-02T10:09:24;101478.50;;;24.22;44.29
72921;BME280;61064;51.654;5.476;2022-09-02T10:14:22;101465.81;;;24.44;43.75
72921;BME280;61064;51.654;5.476;2022-09-02T10:20:07;101466.28;;;24.76;43.53
72921;BME280;61064;51.654;5.476;2022-09-02T10:22:59;101450.28;;;24.90;43.24
72921;BME280;61064;51.654;5.476;2022-09-02T10:25:45;101462.00;;;25.12;42.53
72921;BME280;61064;51.654;5.476;2022-09-02T10:29:31;101451.59;;;25.22;42.48
72921;BME280;61064;51.654;5.476;2022-09-02T10:37:19;101435.97;;;25.66;41.49
72921;BME280;61064;51.654;5.476;2022-09-02T10:51:12;101433.47;;;26.36;40.06
72921;BME280;61064;51.654;5.476;2022-09-02T10:56:43;101440.75;;;26.55;39.10
72921;BME280;61064;51.654;5.476;2022-09-02T10:59:17;101415.06;;;26.59;38.79
72921;BME280;61064;51.654;5.476;2022-09-02T11:01:51;101430.66;;;26.74;38.19
72921;BME280;61064;51.654;5.476;2022-09-02T11:04:32;101425.44;;;26.86;37.74
72921;BME280;61064;51.654;5.476;2022-09-02T11:07:03;101424.75;;;27.00;37.17
72921;BME280;61064;51.654;5.476;2022-09-02T11:09:46;101423.88;;;27.00;37.07
72921;BME280;61064;51.654;5.476;2022-09-02T11:12:25;101409.00;;;27.05;36.59
72921;BME280;61064;51.654;5.476;2022-09-02T11:15:19;101410.13;;;27.18;36.45
72921;BME280;61064;51.654;5.476;2022-09-02T11:17:55;101373.88;;;27.15;36.14
72921;BME280;61064;51.654;5.476;2022-09-02T11:20:31;101394.59;;;27.36;35.30
72921;BME280;61064;51.654;5.476;2022-09-02T11:25:36;101340.56;;;27.08;34.59
72921;BME280;61064;51.654;5.476;2022-09-02T11:28:21;101393.19;;;27.45;34.41
72921;BME280;61064;51.654;5.476;2022-09-02T11:32:01;101381.22;;;27.47;34.58
72921;BME280;61064;51.654;5.476;2022-09-02T11:33:59;101382.50;;;27.57;34.17
72921;BME280;61064;51.654;5.476;2022-09-02T11:36:26;101361.00;;;27.67;34.51
72921;BME280;61064;51.654;5.476;2022-09-02T11:39:12;101379.81;;;27.89;34.44
72921;BME280;61064;51.654;5.476;2022-09-02T11:44:55;101375.06;;;28.24;33.73
72921;BME280;61064;51.654;5.476;2022-09-02T11:50:30;101369.19;;;28.45;33.28
72921;BME280;61064;51.654;5.476;2022-09-02T11:53:20;101364.53;;;28.47;33.15
72921;BME280;61064;51.654;5.476;2022-09-02T11:55:53;101360.06;;;28.61;33.05
72921;BME280;61064;51.654;5.476;2022-09-02T11:58:36;101366.94;;;28.68;32.43
72921;BME280;61064;51.654;5.476;2022-09-02T12:03:34;101343.94;;;28.70;32.03
72921;BME280;61064;51.654;5.476;2022-09-02T12:06:17;101352.63;;;28.78;31.64
72921;BME280;61064;51.654;5.476;2022-09-02T12:11:38;101343.94;;;28.86;31.78
72921;BME280;61064;51.654;5.476;2022-09-02T12:19:38;101330.72;;;28.78;31.31
72921;BME280;61064;51.654;5.476;2022-09-02T12:25:03;101288.81;;;28.76;30.80
72921;BME280;61064;51.654;5.476;2022-09-02T12:27:35;101288.31;;;28.70;30.85
72921;BME280;61064;51.654;5.476;2022-09-02T12:30:04;101305.16;;;28.78;30.79
72921;BME280;61064;51.654;5.476;2022-09-02T12:41:10;101314.59;;;28.28;30.94
72921;BME280;61064;51.654;5.476;2022-09-02T12:46:25;101250.09;;;28.08;30.48
72921;BME280;61064;51.654;5.476;2022-09-02T12:57:05;101299.38;;;28.38;29.55
72921;BME280;61064;51.654;5.476;2022-09-02T12:59:39;101290.47;;;28.35;29.09
72921;BME280;61064;51.654;5.476;2022-09-02T13:05:17;101273.09;;;28.50;28.80
72921;BME280;61064;51.654;5.476;2022-09-02T13:19:21;101297.47;;;28.99;28.33
72921;BME280;61064;51.654;5.476;2022-09-02T13:22:20;101297.06;;;29.05;28.29
72921;BME280;61064;51.654;5.476;2022-09-02T13:28:29;101283.97;;;28.96;28.60
72921;BME280;61064;51.654;5.476;2022-09-02T13:31:24;101292.47;;;29.05;28.39
72921;BME280;61064;51.654;5.476;2022-09-02T13:34:12;101286.69;;;29.10;28.70
72921;BME280;61064;51.654;5.476;2022-09-02T13:36:43;101288.28;;;29.14;28.46
72921;BME280;61064;51.654;5.476;2022-09-02T13:39:45;101290.03;;;29.15;28.23
72921;BME280;61064;51.654;5.476;2022-09-02T13:42:16;101275.75;;;29.10;28.31
72921;BME280;61064;51.654;5.476;2022-09-02T13:44:47;101285.81;;;29.09;27.85
72921;BME280;61064;51.654;5.476;2022-09-02T13:47:17;101269.09;;;29.00;27.87
72921;BME280;61064;51.654;5.476;2022-09-02T13:49:49;101258.91;;;28.87;27.56
72921;BME280;61064;51.654;5.476;2022-09-02T13:52:20;101255.06;;;28.76;27.50
72921;BME280;61064;51.654;5.476;2022-09-02T13:54:56;101227.88;;;28.59;27.84
72921;BME280;61064;51.654;5.476;2022-09-02T13:57:28;101254.69;;;28.82;27.61
72921;BME280;61064;51.654;5.476;2022-09-02T13:59:56;101241.69;;;28.85;27.52
72921;BME280;61064;51.654;5.476;2022-09-02T14:02:34;101258.34;;;28.97;27.44
72921;BME280;61064;51.654;5.476;2022-09-02T14:05:05;101247.06;;;28.87;27.79
72921;BME280;61064;51.654;5.476;2022-09-02T14:07:36;101249.81;;;28.87;27.94
72921;BME280;61064;51.654;5.476;2022-09-02T14:10:10;101252.75;;;28.84;27.71
72921;BME280;61064;51.654;5.476;2022-09-02T14:12:38;101239.13;;;28.82;27.68
72921;BME280;61064;51.654;5.476;2022-09-02T14:15:10;101238.38;;;28.80;27.68
72921;BME280;61064;51.654;5.476;2022-09-02T14:17:37;101227.88;;;28.87;27.72
72921;BME280;61064;51.654;5.476;2022-09-02T14:20:16;101234.75;;;28.94;27.68
72921;BME280;61064;51.654;5.476;2022-09-02T14:22:42;101232.50;;;29.01;27.79
72921;BME280;61064;51.654;5.476;2022-09-02T14:25:12;101234.75;;;29.08;27.82
72921;BME280;61064;51.654;5.476;2022-09-02T14:27:38;101239.63;;;29.17;27.38
72921;BME280;61064;51.654;5.476;2022-09-02T14:30:05;101218.59;;;29.04;27.41
72921;BME280;61064;51.654;5.476;2022-09-02T14:32:34;101217.13;;;28.84;27.24
72921;BME280;61064;51.654;5.476;2022-09-02T14:37:56;101206.03;;;28.71;27.68
72921;BME280;61064;51.654;5.476;2022-09-02T14:40:40;101216.16;;;28.85;27.45
72921;BME280;61064;51.654;5.476;2022-09-02T14:43:13;101194.44;;;28.82;27.68
72921;BME280;61064;51.654;5.476;2022-09-02T14:45:44;101198.34;;;28.78;27.40
72921;BME280;61064;51.654;5.476;2022-09-02T14:48:35;101207.75;;;28.74;27.89
72921;BME280;61064;51.654;5.476;2022-09-02T14:51:04;101212.84;;;28.80;27.57
72921;BME280;61064;51.654;5.476;2022-09-02T14:53:30;101203.53;;;28.82;27.46
72921;BME280;61064;51.654;5.476;2022-09-02T14:55:58;101198.19;;;28.81;27.37
72921;BME280;61064;51.654;5.476;2022-09-02T14:58:25;101195.44;;;28.81;27.63
72921;BME280;61064;51.654;5.476;2022-09-02T15:00:53;101190.63;;;28.84;27.56
72921;BME280;61064;51.654;5.476;2022-09-02T15:03:21;101190.03;;;28.93;27.49